sensor_id;sensor_type;location;lat;lon;timestamp;P1;durP1;ratioP1;P2;durP2;ratioP2
3971;SDS011;2000;47.572;14.202;2024-03-23T00:54:28;2.60;;;2.00;;
3971;SDS011;2000;47.572;14.202;2024-03-23T00:56:54;3.87;;;1.90;;
3971;SDS011;2000;47.572;14.202;2024-03-23T00:59:20;2.57;;;2.03;;
3971;SDS011;2000;47.572;14.202;2024-03-23T01:01:47;2.93;;;1.93;;
3971;SDS011;2000;47.572;14.202;2024-03-23T01:04:13;6.57;;;2.17;;
3971;SDS011;2000;47.572;14.202;2024-03-23T01:06:39;5.67;;;1.83;;
3971;SDS011;2000;47.572;14.202;2024-03-23T01:09:05;1.60;;;1.50;;
3971;SDS011;2000;47.572;14.202;2024-03-23T01:11:31;3.40;;;1.43;;
3971;SDS011;2000;47.572;14.202;2024-03-23T01:13:57;1.70;;;1.50;;
3971;SDS011;2000;47.572;14.202;2024-03-23T01:16:24;3.60;;;1.57;;
3971;SDS011;2000;47.572;14.202;2024-03-23T01:18:50;2.50;;;1.80;;
3971;SDS011;2000;47.572;14.202;2024-03-23T01:21:16;4.57;;;2.10;;
3971;SDS011;2000;47.572;14.202;2024-03-23T01:23:42;4.17;;;1.77;;
3971;SDS011;2000;47.572;14.202;2024-03-23T01:26:08;2.40;;;1.87;;
3971;SDS011;2000;47.572;14.202;2024-03-23T01:28:35;3.40;;;2.23;;
3971;SDS011;2000;47.572;14.202;2024-03-23T01:31:01;1.97;;;1.40;;
3971;SDS011;2000;47.572;14.202;2024-03-23T01:33:27;5.53;;;1.77;;
3971;SDS011;2000;47.572;14.202;2024-03-23T01:35:53;7.30;;;1.70;;
3971;SDS011;2000;47.572;14.202;2024-03-23T01:38:19;4.07;;;1.80;;
3971;SDS011;2000;47.572;14.202;2024-03-23T01:40:45;4.53;;;2.47;;
3971;SDS011;2000;47.572;14.202;2024-03-23T01:43:10;3.93;;;2.57;;
3971;SDS011;2000;47.572;14.202;2024-03-23T01:45:36;6.20;;;1.90;;
3971;SDS011;2000;47.572;14.202;2024-03-23T01:48:03;7.03;;;2.47;;
3971;SDS011;2000;47.572;14.202;2024-03-23T01:50:30;3.50;;;2.27;;
3971;SDS011;2000;47.572;14.202;2024-03-23T01:53:02;6.93;;;1.87;;
3971;SDS011;2000;47.572;14.202;2024-03-23T01:55:28;10.73;;;2.80;;
3971;SDS011;2000;47.572;14.202;2024-03-23T01:57:56;5.67;;;2.10;;
3971;SDS011;2000;47.572;14.202;2024-03-23T02:00:23;3.80;;;2.20;;
3971;SDS011;2000;47.572;14.202;2024-03-23T02:02:49;2.53;;;2.10;;
3971;SDS011;2000;47.572;14.202;2024-03-23T02:05:15;3.60;;;1.90;;
3971;SDS011;2000;47.572;14.202;2024-03-23T02:07:41;2.70;;;1.90;;
3971;SDS011;2000;47.572;14.202;2024-03-23T02:10:09;1.80;;;1.70;;
3971;SDS011;2000;47.572;14.202;2024-03-23T02:12:36;2.87;;;2.03;;
3971;SDS011;2000;47.572;14.202;2024-03-23T02:15:03;5.10;;;2.07;;
3971;SDS011;2000;47.572;14.202;2024-03-23T02:17:30;2.87;;;1.80;;
3971;SDS011;2000;47.572;14.202;2024-03-23T02:19:57;3.57;;;2.40;;
3971;SDS011;2000;47.572;14.202;2024-03-23T02:22:22;5.43;;;2.60;;
3971;SDS011;2000;47.572;14.202;2024-03-23T02:24:48;2.07;;;1.87;;
3971;SDS011;2000;47.572;14.202;2024-03-23T02:27:14;2.33;;;1.80;;
3971;SDS011;2000;47.572;14.202;2024-03-23T02:29:40;3.00;;;1.80;;
3971;SDS011;2000;47.572;14.202;2024-03-23T02:32:06;5.93;;;2.30;;
3971;SDS011;2000;47.572;14.202;2024-03-23T02:34:34;2.93;;;1.77;;
3971;SDS011;2000;47.572;14.202;2024-03-23T02:37:01;2.73;;;1.80;;
3971;SDS011;2000;47.572;14.202;2024-03-23T02:39:27;5.97;;;2.43;;
3971;SDS011;2000;47.572;14.202;2024-03-23T02:41:53;2.97;;;1.90;;
3971;SDS011;2000;47.572;14.202;2024-03-23T02:44:19;3.33;;;2.00;;
3971;SDS011;2000;47.572;14.202;2024-03-23T02:46:45;3.50;;;2.67;;
3971;SDS011;2000;47.572;14.202;2024-03-23T02:49:11;4.47;;;3.17;;
3971;SDS011;2000;47.572;14.202;2024-03-23T02:51:37;3.67;;;2.30;;
3971;SDS011;2000;47.572;14.202;2024-03-23T02:54:03;2.83;;;2.20;;
3971;SDS011;2000;47.572;14.202;2024-03-23T02:56:31;3.63;;;2.97;;
3971;SDS011;2000;47.572;14.202;2024-03-23T02:58:58;6.60;;;3.43;;
3971;SDS011;2000;47.572;14.202;2024-03-23T03:01:24;5.90;;;2.83;;
3971;SDS011;2000;47.572;14.202;2024-03-23T03:03:50;3.00;;;2.70;;
3971;SDS011;2000;47.572;14.202;2024-03-23T03:06:23;3.33;;;3.03;;
3971;SDS011;2000;47.572;14.202;2024-03-23T03:08:51;6.37;;;3.40;;
3971;SDS011;2000;47.572;14.202;2024-03-23T03:11:17;4.10;;;2.60;;
3971;SDS011;2000;47.572;14.202;2024-03-23T03:13:43;5.13;;;2.70;;
3971;SDS011;2000;47.572;14.202;2024-03-23T03:16:10;3.30;;;3.00;;
3971;SDS011;2000;47.572;14.202;2024-03-23T03:18:36;2.73;;;2.20;;
3971;SDS011;2000;47.572;14.202;2024-03-23T03:21:03;1.83;;;1.60;;
3971;SDS011;2000;47.572;14.202;2024-03-23T03:23:31;4.03;;;2.13;;
3971;SDS011;2000;47.572;14.202;2024-03-23T03:25:57;2.50;;;2.30;;
3971;SDS011;2000;47.572;14.202;2024-03-23T03:28:23;4.40;;;2.80;;
3971;SDS011;2000;47.572;14.202;2024-03-23T03:30:51;9.10;;;2.53;;
3971;SDS011;2000;47.572;14.202;2024-03-23T03:33:17;3.40;;;2.80;;
3971;SDS011;2000;47.572;14.202;2024-03-23T03:35:43;1.90;;;1.50;;
3971;SDS011;2000;47.572;14.202;2024-03-23T03:38:10;8.40;;;3.23;;
3971;SDS011;2000;47.572;14.202;2024-03-23T03:40:36;7.63;;;2.73;;
3971;SDS011;2000;47.572;14.202;2024-03-23T03:43:02;4.17;;;2.50;;
3971;SDS011;2000;47.572;14.202;2024-03-23T03:45:29;3.07;;;2.57;;
3971;SDS011;2000;47.572;14.202;2024-03-23T03:47:54;4.10;;;2.57;;
3971;SDS011;2000;47.572;14.202;2024-03-23T03:50:21;2.87;;;2.30;;
3971;SDS011;2000;47.572;14.202;2024-03-23T03:52:47;4.77;;;1.67;;
3971;SDS011;2000;47.572;14.202;2024-03-23T03:55:14;9.20;;;2.67;;
3971;SDS011;2000;47.572;14.202;2024-03-23T03:57:40;4.23;;;1.90;;
3971;SDS011;2000;47.572;14.202;2024-03-23T04:00:06;4.80;;;2.33;;
3971;SDS011;2000;47.572;14.202;2024-03-23T04:02:39;6.20;;;2.33;;
3971;SDS011;2000;47.572;14.202;2024-03-23T04:05:05;3.83;;;2.40;;
3971;SDS011;2000;47.572;14.202;2024-03-23T04:07:32;7.90;;;2.60;;
3971;SDS011;2000;47.572;14.202;2024-03-23T04:09:57;4.00;;;2.50;;
3971;SDS011;2000;47.572;14.202;2024-03-23T04:12:23;3.37;;;2.87;;
3971;SDS011;2000;47.572;14.202;2024-03-23T04:14:49;4.60;;;2.53;;
3971;SDS011;2000;47.572;14.202;2024-03-23T04:17:15;10.73;;;2.20;;
3971;SDS011;2000;47.572;14.202;2024-03-23T04:19:41;7.97;;;2.63;;
3971;SDS011;2000;47.572;14.202;2024-03-23T04:22:08;11.23;;;2.97;;
3971;SDS011;2000;47.572;14.202;2024-03-23T04:24:34;4.50;;;2.67;;
3971;SDS011;2000;47.572;14.202;2024-03-23T04:27:00;10.10;;;3.10;;
3971;SDS011;2000;47.572;14.202;2024-03-23T04:29:26;5.43;;;2.63;;
3971;SDS011;2000;47.572;14.202;2024-03-23T04:31:52;4.13;;;2.40;;
3971;SDS011;2000;47.572;14.202;2024-03-23T04:34:18;3.43;;;3.03;;
3971;SDS011;2000;47.572;14.202;2024-03-23T04:36:44;3.57;;;2.87;;
3971;SDS011;2000;47.572;14.202;2024-03-23T04:39:10;9.20;;;4.37;;
3971;SDS011;2000;47.572;14.202;2024-03-23T04:41:36;11.73;;;4.00;;
3971;SDS011;2000;47.572;14.202;2024-03-23T04:44:02;5.50;;;3.27;;
3971;SDS011;2000;47.572;14.202;2024-03-23T04:46:28;5.40;;;3.43;;
3971;SDS011;2000;47.572;14.202;2024-03-23T04:48:54;6.83;;;2.80;;
3971;SDS011;2000;47.572;14.202;2024-03-23T04:51:25;6.20;;;2.70;;
3971;SDS011;2000;47.572;14.202;2024-03-23T04:53:51;12.73;;;2.90;;
3971;SDS011;2000;47.572;14.202;2024-03-23T04:56:17;3.20;;;1.70;;
3971;SDS011;2000;47.572;14.202;2024-03-23T04:58:43;4.23;;;1.93;;
3971;SDS011;2000;47.572;14.202;2024-03-23T05:01:10;3.90;;;2.30;;
3971;SDS011;2000;47.572;14.202;2024-03-23T05:03:36;6.30;;;3.20;;
3971;SDS011;2000;47.572;14.202;2024-03-23T05:06:02;3.73;;;2.10;;
3971;SDS011;2000;47.572;14.202;2024-03-23T05:08:29;2.63;;;2.10;;
3971;SDS011;2000;47.572;14.202;2024-03-23T05:10:55;4.20;;;2.33;;
3971;SDS011;2000;47.572;14.202;2024-03-23T05:13:21;5.20;;;2.80;;
3971;SDS011;2000;47.572;14.202;2024-03-23T05:15:52;6.00;;;2.77;;
3971;SDS011;2000;47.572;14.202;2024-03-23T05:18:21;5.13;;;2.47;;
3971;SDS011;2000;47.572;14.202;2024-03-23T05:20:47;2.80;;;1.97;;
3971;SDS011;2000;47.572;14.202;2024-03-23T05:23:13;2.90;;;2.60;;
3971;SDS011;2000;47.572;14.202;2024-03-23T05:25:39;5.57;;;2.67;;
3971;SDS011;2000;47.572;14.202;2024-03-23T05:28:05;2.57;;;2.33;;
3971;SDS011;2000;47.572;14.202;2024-03-23T05:30:32;5.37;;;2.50;;
3971;SDS011;2000;47.572;14.202;2024-03-23T05:32:58;5.53;;;2.70;;
3971;SDS011;2000;47.572;14.202;2024-03-23T05:35:24;6.43;;;3.80;;
3971;SDS011;2000;47.572;14.202;2024-03-23T05:37:50;10.33;;;3.47;;
3971;SDS011;2000;47.572;14.202;2024-03-23T05:40:15;11.40;;;2.77;;
3971;SDS011;2000;47.572;14.202;2024-03-23T05:42:41;2.77;;;2.43;;
3971;SDS011;2000;47.572;14.202;2024-03-23T05:45:08;5.10;;;3.20;;
3971;SDS011;2000;47.572;14.202;2024-03-23T05:47:34;2.50;;;2.00;;
3971;SDS011;2000;47.572;14.202;2024-03-23T05:50:00;3.90;;;2.00;;
3971;SDS011;2000;47.572;14.202;2024-03-23T05:52:27;20.70;;;2.00;;
3971;SDS011;2000;47.572;14.202;2024-03-23T05:54:53;4.00;;;1.83;;
3971;SDS011;2000;47.572;14.202;2024-03-23T05:57:19;7.80;;;3.10;;
3971;SDS011;2000;47.572;14.202;2024-03-23T05:59:45;3.97;;;2.30;;
3971;SDS011;2000;47.572;14.202;2024-03-23T06:02:11;4.93;;;1.80;;
3971;SDS011;2000;47.572;14.202;2024-03-23T06:04:37;2.33;;;1.40;;
3971;SDS011;2000;47.572;14.202;2024-03-23T06:07:03;5.20;;;1.80;;
3971;SDS011;2000;47.572;14.202;2024-03-23T06:09:32;2.30;;;1.70;;
3971;SDS011;2000;47.572;14.202;2024-03-23T06:11:58;2.23;;;1.30;;
3971;SDS011;2000;47.572;14.202;2024-03-23T06:14:23;5.93;;;1.90;;
3971;SDS011;2000;47.572;14.202;2024-03-23T06:16:49;2.03;;;1.90;;
3971;SDS011;2000;47.572;14.202;2024-03-23T06:19:15;2.80;;;1.53;;
3971;SDS011;2000;47.572;14.202;2024-03-23T06:21:45;3.37;;;2.10;;
3971;SDS011;2000;47.572;14.202;2024-03-23T06:24:11;4.73;;;2.10;;
3971;SDS011;2000;47.572;14.202;2024-03-23T06:26:37;3.33;;;1.30;;
3971;SDS011;2000;47.572;14.202;2024-03-23T06:29:04;9.43;;;2.77;;
3971;SDS011;2000;47.572;14.202;2024-03-23T06:31:31;3.83;;;2.50;;
3971;SDS011;2000;47.572;14.202;2024-03-23T06:33:57;4.17;;;2.03;;
3971;SDS011;2000;47.572;14.202;2024-03-23T06:36:23;5.13;;;2.10;;
3971;SDS011;2000;47.572;14.202;2024-03-23T06:38:49;5.83;;;2.33;;
3971;SDS011;2000;47.572;14.202;2024-03-23T06:41:15;9.40;;;2.60;;
3971;SDS011;2000;47.572;14.202;2024-03-23T06:43:41;3.20;;;2.27;;
3971;SDS011;2000;47.572;14.202;2024-03-23T06:46:07;2.60;;;1.90;;
3971;SDS011;2000;47.572;14.202;2024-03-23T06:48:33;9.33;;;2.27;;
3971;SDS011;2000;47.572;14.202;2024-03-23T06:50:59;2.63;;;2.27;;
3971;SDS011;2000;47.572;14.202;2024-03-23T06:53:25;4.00;;;2.50;;
3971;SDS011;2000;47.572;14.202;2024-03-23T06:55:51;4.43;;;3.00;;
3971;SDS011;2000;47.572;14.202;2024-03-23T06:58:24;3.87;;;2.80;;
3971;SDS011;2000;47.572;14.202;2024-03-23T07:00:50;2.60;;;2.13;;
3971;SDS011;2000;47.572;14.202;2024-03-23T07:03:16;2.50;;;1.93;;
3971;SDS011;2000;47.572;14.202;2024-03-23T07:05:42;5.30;;;2.40;;
3971;SDS011;2000;47.572;14.202;2024-03-23T07:08:09;6.20;;;2.37;;
3971;SDS011;2000;47.572;14.202;2024-03-23T07:10:34;5.30;;;3.23;;
3971;SDS011;2000;47.572;14.202;2024-03-23T07:13:01;2.80;;;1.97;;
3971;SDS011;2000;47.572;14.202;2024-03-23T07:15:27;2.50;;;1.90;;
3971;SDS011;2000;47.572;14.202;2024-03-23T07:17:53;5.77;;;2.27;;
3971;SDS011;2000;47.572;14.202;2024-03-23T07:20:19;4.20;;;2.97;;
3971;SDS011;2000;47.572;14.202;2024-03-23T07:22:46;6.50;;;2.60;;
3971;SDS011;2000;47.572;14.202;2024-03-23T07:25:13;9.83;;;3.07;;
3971;SDS011;2000;47.572;14.202;2024-03-23T07:27:39;4.53;;;2.20;;
3971;SDS011;2000;47.572;14.202;2024-03-23T07:30:05;1.60;;;1.30;;
3971;SDS011;2000;47.572;14.202;2024-03-23T07:32:32;4.53;;;2.37;;
3971;SDS011;2000;47.572;14.202;2024-03-23T07:34:58;3.97;;;2.07;;
3971;SDS011;2000;47.572;14.202;2024-03-23T07:37:24;4.00;;;2.23;;
3971;SDS011;2000;47.572;14.202;2024-03-23T07:39:51;9.20;;;2.23;;
3971;SDS011;2000;47.572;14.202;2024-03-23T07:42:17;2.57;;;2.30;;
3971;SDS011;2000;47.572;14.202;2024-03-23T07:44:43;5.77;;;2.40;;
3971;SDS011;2000;47.572;14.202;2024-03-23T07:47:09;4.53;;;2.90;;
3971;SDS011;2000;47.572;14.202;2024-03-23T07:49:35;2.80;;;1.93;;
3971;SDS011;2000;47.572;14.202;2024-03-23T07:52:00;1.87;;;1.60;;
3971;SDS011;2000;47.572;14.202;2024-03-23T07:54:26;4.50;;;2.57;;
3971;SDS011;2000;47.572;14.202;2024-03-23T07:56:52;2.40;;;2.20;;
3971;SDS011;2000;47.572;14.202;2024-03-23T07:59:18;2.47;;;1.83;;
3971;SDS011;2000;47.572;14.202;2024-03-23T08:01:45;3.60;;;2.00;;
3971;SDS011;2000;47.572;14.202;2024-03-23T08:04:11;5.83;;;2.90;;
3971;SDS011;2000;47.572;14.202;2024-03-23T08:06:37;3.90;;;1.90;;
3971;SDS011;2000;47.572;14.202;2024-03-23T08:09:03;3.80;;;2.10;;
3971;SDS011;2000;47.572;14.202;2024-03-23T08:11:30;4.07;;;2.60;;
3971;SDS011;2000;47.572;14.202;2024-03-23T08:13:57;3.23;;;2.37;;
3971;SDS011;2000;47.572;14.202;2024-03-23T08:16:23;5.90;;;2.00;;
3971;SDS011;2000;47.572;14.202;2024-03-23T08:18:53;1.63;;;1.50;;
3971;SDS011;2000;47.572;14.202;2024-03-23T08:21:21;3.47;;;2.23;;
3971;SDS011;2000;47.572;14.202;2024-03-23T08:23:46;3.47;;;1.70;;
3971;SDS011;2000;47.572;14.202;2024-03-23T08:26:14;2.50;;;1.80;;
3971;SDS011;2000;47.572;14.202;2024-03-23T08:28:41;1.67;;;1.20;;
3971;SDS011;2000;47.572;14.202;2024-03-23T08:31:08;2.80;;;2.30;;
3971;SDS011;2000;47.572;14.202;2024-03-23T08:33:34;1.80;;;1.70;;
3971;SDS011;2000;47.572;14.202;2024-03-23T08:36:04;2.40;;;1.67;;
3971;SDS011;2000;47.572;14.202;2024-03-23T08:38:31;2.27;;;1.80;;
3971;SDS011;2000;47.572;14.202;2024-03-23T08:41:05;1.80;;;1.60;;
3971;SDS011;2000;47.572;14.202;2024-03-23T08:43:32;4.10;;;1.90;;
3971;SDS011;2000;47.572;14.202;2024-03-23T08:46:06;2.90;;;1.97;;
3971;SDS011;2000;47.572;14.202;2024-03-23T08:48:40;3.50;;;2.60;;
3971;SDS011;2000;47.572;14.202;2024-03-23T08:51:09;2.73;;;1.67;;
3971;SDS011;2000;47.572;14.202;2024-03-23T08:53:37;2.40;;;1.47;;
3971;SDS011;2000;47.572;14.202;2024-03-23T08:56:03;3.93;;;2.10;;
3971;SDS011;2000;47.572;14.202;2024-03-23T08:58:30;1.60;;;1.50;;
3971;SDS011;2000;47.572;14.202;2024-03-23T09:00:57;1.83;;;1.67;;
3971;SDS011;2000;47.572;14.202;2024-03-23T09:03:29;1.33;;;1.20;;
3971;SDS011;2000;47.572;14.202;2024-03-23T09:05:55;2.17;;;1.80;;
3971;SDS011;2000;47.572;14.202;2024-03-23T09:08:21;1.57;;;1.43;;
3971;SDS011;2000;47.572;14.202;2024-03-23T09:10:47;4.13;;;1.40;;
3971;SDS011;2000;47.572;14.202;2024-03-23T09:13:14;4.40;;;1.50;;
3971;SDS011;2000;47.572;14.202;2024-03-23T09:15:46;2.10;;;1.67;;
3971;SDS011;2000;47.572;14.202;2024-03-23T09:18:16;3.70;;;1.47;;
3971;SDS011;2000;47.572;14.202;2024-03-23T09:20:43;3.03;;;1.87;;
3971;SDS011;2000;47.572;14.202;2024-03-23T09:23:09;3.30;;;1.33;;
3971;SDS011;2000;47.572;14.202;2024-03-23T09:25:38;2.80;;;1.80;;
3971;SDS011;2000;47.572;14.202;2024-03-23T09:28:05;1.60;;;1.50;;
3971;SDS011;2000;47.572;14.202;2024-03-23T09:30:32;1.73;;;1.60;;
3971;SDS011;2000;47.572;14.202;2024-03-23T09:33:02;1.97;;;1.50;;
3971;SDS011;2000;47.572;14.202;2024-03-23T09:35:28;3.80;;;1.70;;
3971;SDS011;2000;47.572;14.202;2024-03-23T09:37:54;2.23;;;2.03;;
3971;SDS011;2000;47.572;14.202;2024-03-23T09:40:20;1.67;;;1.57;;
3971;SDS011;2000;47.572;14.202;2024-03-23T09:42:50;1.93;;;1.83;;
3971;SDS011;2000;47.572;14.202;2024-03-23T09:46:01;2.40;;;1.40;;
3971;SDS011;2000;47.572;14.202;2024-03-23T09:48:04;2.43;;;1.73;;
3971;SDS011;2000;47.572;14.202;2024-03-23T09:50:30;2.37;;;2.10;;
3971;SDS011;2000;47.572;14.202;2024-03-23T09:52:56;2.70;;;1.53;;
3971;SDS011;2000;47.572;14.202;2024-03-23T09:55:22;5.80;;;1.53;;
3971;SDS011;2000;47.572;14.202;2024-03-23T09:57:50;1.93;;;1.63;;
3971;SDS011;2000;47.572;14.202;2024-03-23T10:00:16;2.40;;;1.60;;
3971;SDS011;2000;47.572;14.202;2024-03-23T10:02:42;1.50;;;1.40;;
3971;SDS011;2000;47.572;14.202;2024-03-23T10:05:19;3.90;;;1.03;;
3971;SDS011;2000;47.572;14.202;2024-03-23T10:07:47;2.00;;;1.50;;
3971;SDS011;2000;47.572;14.202;2024-03-23T10:10:15;1.87;;;1.43;;
3971;SDS011;2000;47.572;14.202;2024-03-23T10:12:45;2.27;;;1.57;;
3971;SDS011;2000;47.572;14.202;2024-03-23T10:17:50;1.77;;;1.37;;
3971;SDS011;2000;47.572;14.202;2024-03-23T10:20:20;3.70;;;1.50;;
3971;SDS011;2000;47.572;14.202;2024-03-23T10:22:48;5.90;;;1.77;;
3971;SDS011;2000;47.572;14.202;2024-03-23T10:25:15;1.60;;;1.43;;
3971;SDS011;2000;47.572;14.202;2024-03-23T10:27:41;1.60;;;1.33;;
3971;SDS011;2000;47.572;14.202;2024-03-23T10:30:12;2.33;;;1.40;;
3971;SDS011;2000;47.572;14.202;2024-03-23T10:32:40;2.60;;;1.77;;
3971;SDS011;2000;47.572;14.202;2024-03-23T10:35:16;1.60;;;1.50;;
3971;SDS011;2000;47.572;14.202;2024-03-23T10:37:49;1.40;;;1.30;;
3971;SDS011;2000;47.572;14.202;2024-03-23T10:40:17;1.50;;;1.40;;
3971;SDS011;2000;47.572;14.202;2024-03-23T10:42:43;1.73;;;1.63;;
3971;SDS011;2000;47.572;14.202;2024-03-23T10:45:10;5.13;;;1.20;;
3971;SDS011;2000;47.572;14.202;2024-03-23T10:47:36;3.87;;;1.60;;
3971;SDS011;2000;47.572;14.202;2024-03-23T10:50:04;2.77;;;1.13;;
3971;SDS011;2000;47.572;14.202;2024-03-23T10:52:33;3.07;;;1.70;;
3971;SDS011;2000;47.572;14.202;2024-03-23T10:55:00;2.33;;;1.60;;
3971;SDS011;2000;47.572;14.202;2024-03-23T10:57:32;1.83;;;1.60;;
3971;SDS011;2000;47.572;14.202;2024-03-23T11:00:03;2.87;;;1.70;;
3971;SDS011;2000;47.572;14.202;2024-03-23T11:02:29;3.23;;;1.97;;
3971;SDS011;2000;47.572;14.202;2024-03-23T11:04:55;5.80;;;1.60;;
3971;SDS011;2000;47.572;14.202;2024-03-23T11:09:59;1.43;;;1.13;;
3971;SDS011;2000;47.572;14.202;2024-03-23T11:12:27;1.27;;;1.10;;
3971;SDS011;2000;47.572;14.202;2024-03-23T11:14:54;1.57;;;1.47;;
3971;SDS011;2000;47.572;14.202;2024-03-23T11:17:23;1.73;;;1.60;;
3971;SDS011;2000;47.572;14.202;2024-03-23T11:19:53;2.33;;;1.30;;
3971;SDS011;2000;47.572;14.202;2024-03-23T11:22:42;3.37;;;1.70;;
3971;SDS011;2000;47.572;14.202;2024-03-23T11:27:50;2.20;;;1.60;;
3971;SDS011;2000;47.572;14.202;2024-03-23T11:30:17;3.60;;;1.70;;
3971;SDS011;2000;47.572;14.202;2024-03-23T11:32:48;4.10;;;2.20;;
3971;SDS011;2000;47.572;14.202;2024-03-23T11:35:27;2.00;;;1.13;;
3971;SDS011;2000;47.572;14.202;2024-03-23T11:38:12;5.33;;;1.47;;
3971;SDS011;2000;47.572;14.202;2024-03-23T11:40:43;2.40;;;1.33;;
3971;SDS011;2000;47.572;14.202;2024-03-23T11:43:12;4.97;;;1.53;;
3971;SDS011;2000;47.572;14.202;2024-03-23T11:45:43;12.37;;;1.53;;
3971;SDS011;2000;47.572;14.202;2024-03-23T11:48:19;9.73;;;1.40;;
3971;SDS011;2000;47.572;14.202;2024-03-23T11:50:47;1.97;;;1.40;;
3971;SDS011;2000;47.572;14.202;2024-03-23T11:53:23;3.10;;;0.97;;
3971;SDS011;2000;47.572;14.202;2024-03-23T11:55:50;1.60;;;1.10;;
3971;SDS011;2000;47.572;14.202;2024-03-23T11:58:18;2.00;;;1.07;;
3971;SDS011;2000;47.572;14.202;2024-03-23T12:00:52;2.53;;;0.80;;
3971;SDS011;2000;47.572;14.202;2024-03-23T12:03:25;1.47;;;1.33;;
3971;SDS011;2000;47.572;14.202;2024-03-23T12:05:52;9.93;;;0.80;;
3971;SDS011;2000;47.572;14.202;2024-03-23T12:10:48;3.97;;;0.90;;
3971;SDS011;2000;47.572;14.202;2024-03-23T12:13:15;2.33;;;0.77;;
3971;SDS011;2000;47.572;14.202;2024-03-23T12:15:43;2.20;;;0.50;;
3971;SDS011;2000;47.572;14.202;2024-03-23T12:18:10;1.80;;;0.87;;
3971;SDS011;2000;47.572;14.202;2024-03-23T12:20:37;2.00;;;0.70;;
3971;SDS011;2000;47.572;14.202;2024-03-23T12:23:07;2.70;;;0.80;;
3971;SDS011;2000;47.572;14.202;2024-03-23T12:25:35;9.53;;;4.00;;
3971;SDS011;2000;47.572;14.202;2024-03-23T12:28:02;1.43;;;1.03;;
3971;SDS011;2000;47.572;14.202;2024-03-23T12:30:28;2.40;;;1.47;;
3971;SDS011;2000;47.572;14.202;2024-03-23T12:32:54;1.40;;;0.73;;
3971;SDS011;2000;47.572;14.202;2024-03-23T12:35:20;4.33;;;0.80;;
3971;SDS011;2000;47.572;14.202;2024-03-23T12:37:46;1.23;;;0.43;;
3971;SDS011;2000;47.572;14.202;2024-03-23T12:40:12;0.57;;;0.57;;
3971;SDS011;2000;47.572;14.202;2024-03-23T12:42:38;2.23;;;0.57;;
3971;SDS011;2000;47.572;14.202;2024-03-23T12:45:04;3.00;;;0.60;;
3971;SDS011;2000;47.572;14.202;2024-03-23T12:47:31;0.80;;;0.50;;
3971;SDS011;2000;47.572;14.202;2024-03-23T12:49:57;0.30;;;0.30;;
3971;SDS011;2000;47.572;14.202;2024-03-23T12:52:22;1.03;;;0.53;;
3971;SDS011;2000;47.572;14.202;2024-03-23T12:54:54;0.50;;;0.40;;
3971;SDS011;2000;47.572;14.202;2024-03-23T12:57:25;2.00;;;0.80;;
3971;SDS011;2000;47.572;14.202;2024-03-23T12:59:54;1.90;;;0.40;;
3971;SDS011;2000;47.572;14.202;2024-03-23T13:02:20;0.60;;;0.60;;
3971;SDS011;2000;47.572;14.202;2024-03-23T13:04:49;0.60;;;0.50;;
3971;SDS011;2000;47.572;14.202;2024-03-23T13:07:15;2.17;;;2.07;;
3971;SDS011;2000;47.572;14.202;2024-03-23T13:09:42;1.60;;;1.13;;
3971;SDS011;2000;47.572;14.202;2024-03-23T13:12:08;1.10;;;1.10;;
3971;SDS011;2000;47.572;14.202;2024-03-23T13:14:34;0.67;;;0.67;;
3971;SDS011;2000;47.572;14.202;2024-03-23T13:17:00;0.70;;;0.67;;
3971;SDS011;2000;47.572;14.202;2024-03-23T13:19:28;1.90;;;0.50;;
3971;SDS011;2000;47.572;14.202;2024-03-23T13:21:59;2.00;;;0.40;;
3971;SDS011;2000;47.572;14.202;2024-03-23T13:24:26;0.50;;;0.30;;
3971;SDS011;2000;47.572;14.202;2024-03-23T13:26:53;0.30;;;0.30;;
3971;SDS011;2000;47.572;14.202;2024-03-23T13:29:20;1.13;;;0.40;;
3971;SDS011;2000;47.572;14.202;2024-03-23T13:31:47;0.30;;;0.30;;
3971;SDS011;2000;47.572;14.202;2024-03-23T13:34:15;0.50;;;0.50;;
3971;SDS011;2000;47.572;14.202;2024-03-23T13:36:41;0.40;;;0.40;;
3971;SDS011;2000;47.572;14.202;2024-03-23T13:39:08;0.83;;;0.57;;
3971;SDS011;2000;47.572;14.202;2024-03-23T13:41:41;1.23;;;0.70;;
3971;SDS011;2000;47.572;14.202;2024-03-23T13:44:08;1.07;;;0.97;;
3971;SDS011;2000;47.572;14.202;2024-03-23T13:46:38;3.07;;;1.00;;
3971;SDS011;2000;47.572;14.202;2024-03-23T13:49:05;2.07;;;1.70;;
3971;SDS011;2000;47.572;14.202;2024-03-23T13:51:32;2.63;;;1.13;;
3971;SDS011;2000;47.572;14.202;2024-03-23T13:53:58;0.50;;;0.50;;
3971;SDS011;2000;47.572;14.202;2024-03-23T13:56:27;0.50;;;0.40;;
3971;SDS011;2000;47.572;14.202;2024-03-23T13:58:57;0.80;;;0.80;;
3971;SDS011;2000;47.572;14.202;2024-03-23T14:01:23;0.30;;;0.30;;
3971;SDS011;2000;47.572;14.202;2024-03-23T14:03:50;0.40;;;0.40;;
3971;SDS011;2000;47.572;14.202;2024-03-23T14:06:16;1.37;;;0.60;;
3971;SDS011;2000;47.572;14.202;2024-03-23T14:08:41;4.53;;;0.67;;
3971;SDS011;2000;47.572;14.202;2024-03-23T14:11:09;0.30;;;0.30;;
3971;SDS011;2000;47.572;14.202;2024-03-23T14:13:36;0.30;;;0.20;;
3971;SDS011;2000;47.572;14.202;2024-03-23T14:16:02;1.40;;;0.30;;
3971;SDS011;2000;47.572;14.202;2024-03-23T14:18:29;0.30;;;0.20;;
3971;SDS011;2000;47.572;14.202;2024-03-23T14:20:58;0.87;;;0.43;;
3971;SDS011;2000;47.572;14.202;2024-03-23T14:23:26;1.03;;;0.90;;
3971;SDS011;2000;47.572;14.202;2024-03-23T14:25:53;0.30;;;0.30;;
3971;SDS011;2000;47.572;14.202;2024-03-23T14:28:20;2.50;;;1.30;;
3971;SDS011;2000;47.572;14.202;2024-03-23T14:30:47;1.00;;;0.77;;
3971;SDS011;2000;47.572;14.202;2024-03-23T14:33:13;1.97;;;0.87;;
3971;SDS011;2000;47.572;14.202;2024-03-23T14:35:39;0.67;;;0.40;;
3971;SDS011;2000;47.572;14.202;2024-03-23T14:38:05;0.90;;;0.30;;
3971;SDS011;2000;47.572;14.202;2024-03-23T14:40:31;0.60;;;0.30;;
3971;SDS011;2000;47.572;14.202;2024-03-23T14:42:57;0.67;;;0.30;;
3971;SDS011;2000;47.572;14.202;2024-03-23T14:45:23;0.30;;;0.20;;
3971;SDS011;2000;47.572;14.202;2024-03-23T14:47:50;5.30;;;2.80;;
3971;SDS011;2000;47.572;14.202;2024-03-23T14:50:17;0.70;;;0.53;;
3971;SDS011;2000;47.572;14.202;2024-03-23T14:52:46;0.93;;;0.40;;
3971;SDS011;2000;47.572;14.202;2024-03-23T14:55:13;3.70;;;0.97;;
3971;SDS011;2000;47.572;14.202;2024-03-23T14:57:39;0.73;;;0.50;;
3971;SDS011;2000;47.572;14.202;2024-03-23T15:00:06;0.40;;;0.30;;
3971;SDS011;2000;47.572;14.202;2024-03-23T15:02:38;0.43;;;0.43;;
3971;SDS011;2000;47.572;14.202;2024-03-23T15:05:05;0.60;;;0.37;;
3971;SDS011;2000;47.572;14.202;2024-03-23T15:07:38;1.33;;;0.60;;
3971;SDS011;2000;47.572;14.202;2024-03-23T15:10:06;0.67;;;0.50;;
3971;SDS011;2000;47.572;14.202;2024-03-23T15:12:33;2.00;;;0.40;;
3971;SDS011;2000;47.572;14.202;2024-03-23T15:14:59;0.77;;;0.40;;
3971;SDS011;2000;47.572;14.202;2024-03-23T15:17:26;0.97;;;0.30;;
3971;SDS011;2000;47.572;14.202;2024-03-23T15:19:52;0.83;;;0.60;;
3971;SDS011;2000;47.572;14.202;2024-03-23T15:22:19;1.40;;;0.73;;
3971;SDS011;2000;47.572;14.202;2024-03-23T15:24:46;0.50;;;0.40;;
3971;SDS011;2000;47.572;14.202;2024-03-23T15:27:13;0.50;;;0.37;;
3971;SDS011;2000;47.572;14.202;2024-03-23T15:29:39;0.50;;;0.30;;
3971;SDS011;2000;47.572;14.202;2024-03-23T15:32:05;1.43;;;0.70;;
3971;SDS011;2000;47.572;14.202;2024-03-23T15:34:31;0.70;;;0.50;;
3971;SDS011;2000;47.572;14.202;2024-03-23T15:36:57;1.73;;;0.60;;
3971;SDS011;2000;47.572;14.202;2024-03-23T15:39:23;0.30;;;0.30;;
3971;SDS011;2000;47.572;14.202;2024-03-23T15:41:49;0.93;;;0.50;;
3971;SDS011;2000;47.572;14.202;2024-03-23T15:44:15;3.10;;;0.50;;
3971;SDS011;2000;47.572;14.202;2024-03-23T15:46:41;1.70;;;0.60;;
3971;SDS011;2000;47.572;14.202;2024-03-23T15:49:07;2.00;;;0.90;;
3971;SDS011;2000;47.572;14.202;2024-03-23T15:51:33;0.70;;;0.50;;
3971;SDS011;2000;47.572;14.202;2024-03-23T15:54:03;0.40;;;0.40;;
3971;SDS011;2000;47.572;14.202;2024-03-23T15:56:29;0.60;;;0.60;;
3971;SDS011;2000;47.572;14.202;2024-03-23T15:58:55;2.53;;;0.70;;
3971;SDS011;2000;47.572;14.202;2024-03-23T16:01:21;1.70;;;0.53;;
3971;SDS011;2000;47.572;14.202;2024-03-23T16:03:47;0.87;;;0.80;;